Portada
METAR-TAF:

METAR-TAF

Aeroports :

Andersen, Guam, Estats Units d'Amèrica

latitud: 13-35N, longitud: 144-56E, altitud: 187 m

Observació

L'informe es va fer fa 1 hora i 1 minuts, a les 07:55 UTC
Vent 6 kt del Sud-Est
Temperatura 27°C
Humitat 79%
Pressió 1011 hPa
Visibilitat: 16.1 km
Escasses núvols a una alçada de 1800 ft

METAR: PGUA 120755Z 13006KT 10SM FEW018 27/23 A2985 RMK AO2A SLP099 T02680228 $

Hora: 18:56 (08:56 UTC)

Pronòstic

L'informe es va fer fa 6 hores i 56 minuts, a les 02:00 UTC
Pronòstic vàlid del 12 a les 02 UTC al 13 a les 08 UTC
Vent 12 kt del Est/Sud-Est
Visibilitat 10 km o més
Núvols disperses a una alçada de 1100 ft
Temporalment
l' 12 a les 02 UTC al 12 a les 05 UTC
Vent 12 kt del Est/Sud-Est amb ràfegues de 18 kt
Visibilitat: 8000 m
Cel ennuvolat a una alçada de 1100 ft
xàfecs de pluja

TAF: PGUA 120200Z 1202/1308 12012KT 9999 SCT011 QNH2981INS TEMPO 1202/1205 12012G18KT 8000 -SHRA BKN011 TX30/1210Z TN25/1220Z

Observacions i pronòstics meteorològics de més de 4000 aeroports (METAR i TAF).

Les estacions disponibles són els punts grocs i vermells al mapa.

Posi el ratolí al punt desitjat per veure el nom de l'estació.

Feu clic per veure les observacions i els pronòstics meteorològics.

Per canviar el mapa: feu clic els botons verds amb una creu de color negre per apropar; al botó verd amb un guió per allunyar la imatge; o en les fletxes verdes per a mapes adjacents.


METAR-TAF: